createdAt,value
2018-09-30T00:01:43.017Z,11.90
2018-09-30T00:04:11.108Z,11.90
2018-09-30T00:06:39.182Z,11.88
2018-09-30T00:09:07.539Z,11.93
2018-09-30T00:11:35.629Z,11.93
2018-09-30T00:14:03.682Z,11.95
2018-09-30T00:16:31.746Z,11.93
2018-09-30T00:18:59.864Z,11.95
2018-09-30T00:21:27.920Z,12.01
2018-09-30T00:24:01.469Z,11.90
2018-09-30T00:26:34.844Z,11.82
2018-09-30T00:29:02.909Z,11.78
2018-09-30T00:31:30.969Z,11.83
2018-09-30T00:34:04.385Z,11.91
2018-09-30T00:36:32.525Z,12.03
2018-09-30T00:39:00.670Z,12.01
2018-09-30T00:41:28.737Z,12.04
2018-09-30T00:43:56.949Z,12.13
2018-09-30T00:46:25.000Z,12.23
2018-09-30T00:48:53.062Z,12.27
2018-09-30T00:51:21.117Z,12.22
2018-09-30T00:53:49.204Z,12.28
2018-09-30T00:56:17.273Z,12.32
2018-09-30T00:58:45.339Z,12.33
2018-09-30T01:01:13.393Z,12.41
2018-09-30T01:03:41.485Z,12.47
2018-09-30T01:06:09.537Z,12.54
2018-09-30T01:08:37.662Z,12.52
2018-09-30T01:11:05.985Z,12.53
2018-09-30T01:13:34.069Z,12.53
2018-09-30T01:16:02.121Z,12.54
2018-09-30T01:18:30.185Z,12.50
2018-09-30T01:20:58.257Z,12.43
2018-09-30T01:23:26.349Z,12.46
2018-09-30T01:25:54.433Z,12.47
2018-09-30T01:28:22.509Z,12.45
2018-09-30T01:30:50.653Z,12.49
2018-09-30T01:33:18.749Z,12.53
2018-09-30T01:35:46.881Z,12.52
2018-09-30T01:38:14.981Z,12.60
2018-09-30T01:40:43.093Z,12.65
2018-09-30T01:43:11.216Z,12.73
2018-09-30T01:45:39.264Z,12.78
2018-09-30T01:48:07.356Z,12.80
2018-09-30T01:50:35.609Z,12.81
2018-09-30T01:53:03.701Z,12.83
2018-09-30T01:55:31.752Z,12.85
2018-09-30T01:57:59.809Z,12.88
2018-09-30T02:00:27.922Z,12.89
2018-09-30T02:02:55.981Z,12.88
2018-09-30T02:05:24.033Z,12.87
2018-09-30T02:07:52.113Z,12.91
2018-09-30T02:10:20.185Z,12.84
2018-09-30T02:12:48.287Z,12.77
2018-09-30T02:15:16.421Z,12.70
2018-09-30T02:17:44.497Z,12.68
2018-09-30T02:20:12.548Z,12.65
2018-09-30T02:22:40.611Z,12.61
2018-09-30T02:25:08.673Z,12.61
2018-09-30T02:27:36.773Z,12.64
2018-09-30T02:30:05.237Z,12.69
2018-09-30T02:32:33.321Z,12.72
2018-09-30T02:35:01.432Z,12.64
2018-09-30T02:37:29.490Z,12.65
2018-09-30T02:39:57.553Z,12.62
2018-09-30T02:42:25.605Z,12.47
2018-09-30T02:44:53.676Z,12.35
2018-09-30T02:47:21.733Z,12.34
2018-09-30T02:49:49.825Z,12.37
2018-09-30T02:52:17.887Z,12.37
2018-09-30T02:54:45.954Z,12.33
2018-09-30T02:57:14.069Z,12.31
2018-09-30T02:59:42.185Z,12.33
2018-09-30T03:02:10.273Z,12.35
2018-09-30T03:04:38.332Z,12.33
2018-09-30T03:07:12.017Z,12.29
2018-09-30T03:09:42.629Z,12.25
2018-09-30T03:12:10.841Z,12.23
2018-09-30T03:14:39.053Z,12.19
2018-09-30T03:17:07.186Z,12.19
2018-09-30T03:19:35.253Z,12.20
2018-09-30T03:22:03.324Z,12.20
2018-09-30T03:24:31.425Z,12.23
2018-09-30T03:26:59.490Z,12.24
2018-09-30T03:29:27.561Z,12.25
2018-09-30T03:31:55.616Z,12.25
2018-09-30T03:34:23.709Z,12.20
2018-09-30T03:36:51.849Z,12.07
2018-09-30T03:39:19.917Z,11.97
2018-09-30T03:41:47.977Z,11.94
2018-09-30T03:44:16.085Z,11.98
2018-09-30T03:46:44.324Z,12.01
2018-09-30T03:49:12.413Z,11.91
2018-09-30T03:51:40.474Z,11.87
2018-09-30T03:54:08.540Z,11.89
2018-09-30T03:56:36.621Z,11.97
2018-09-30T03:59:04.681Z,12.04
2018-09-30T04:01:32.741Z,12.03
2018-09-30T04:04:00.825Z,12.01
2018-09-30T04:06:28.877Z,11.98
2018-09-30T04:08:56.961Z,11.94
2018-09-30T04:11:25.028Z,11.94
2018-09-30T04:13:53.085Z,11.87
2018-09-30T04:16:21.165Z,11.87
2018-09-30T04:18:49.237Z,11.88
2018-09-30T04:21:17.414Z,11.83
2018-09-30T04:23:45.465Z,11.84
2018-09-30T04:26:13.556Z,11.87
2018-09-30T04:28:41.681Z,11.83
2018-09-30T04:31:09.800Z,11.74
2018-09-30T04:33:37.867Z,11.70
2018-09-30T04:36:06.150Z,11.74
2018-09-30T04:38:34.205Z,11.80
2018-09-30T04:41:02.288Z,11.83
2018-09-30T04:43:30.349Z,11.83
2018-09-30T04:45:58.417Z,11.86
2018-09-30T04:48:26.482Z,11.87
2018-09-30T04:50:54.564Z,11.88
2018-09-30T04:53:22.614Z,11.87
2018-09-30T04:55:50.709Z,11.83
2018-09-30T04:58:18.769Z,11.80
2018-09-30T05:00:46.844Z,11.81
2018-09-30T05:03:14.899Z,11.80
2018-09-30T05:05:43.003Z,11.79
2018-09-30T05:08:11.058Z,11.77
2018-09-30T05:10:39.125Z,11.76
2018-09-30T05:13:07.189Z,11.77
2018-09-30T05:15:35.268Z,11.76
2018-09-30T05:18:03.312Z,11.84
2018-09-30T05:20:31.410Z,11.88
2018-09-30T05:22:59.460Z,11.92
2018-09-30T05:25:27.528Z,11.93
2018-09-30T05:27:55.613Z,11.87
2018-09-30T05:30:23.673Z,11.85
2018-09-30T05:32:51.744Z,11.91
2018-09-30T05:35:19.805Z,11.98
2018-09-30T05:37:47.924Z,12.02
2018-09-30T05:40:16.001Z,11.90
2018-09-30T05:42:44.096Z,11.71
2018-09-30T05:45:12.213Z,11.52
2018-09-30T05:47:40.277Z,11.35
2018-09-30T05:50:08.353Z,11.20
2018-09-30T05:52:36.465Z,11.07
2018-09-30T05:55:04.541Z,10.97
2018-09-30T05:57:32.646Z,10.86
2018-09-30T06:00:00.725Z,10.76
2018-09-30T06:02:28.796Z,10.71
2018-09-30T06:04:56.864Z,10.66
2018-09-30T06:07:24.945Z,10.61
2018-09-30T06:09:53.009Z,10.56
2018-09-30T06:12:21.084Z,10.55
2018-09-30T06:14:49.155Z,10.55
2018-09-30T06:17:17.273Z,10.55
2018-09-30T06:19:45.364Z,10.55
2018-09-30T06:22:13.440Z,10.53
2018-09-30T06:24:41.508Z,10.54
2018-09-30T06:27:09.585Z,10.55
2018-09-30T06:29:37.865Z,10.56
2018-09-30T06:32:06.012Z,10.59
2018-09-30T06:34:34.032Z,10.61
2018-09-30T06:37:02.158Z,10.66
2018-09-30T06:39:30.197Z,10.70
2018-09-30T06:41:58.277Z,10.73
2018-09-30T06:44:26.366Z,10.78
2018-09-30T06:46:54.479Z,10.81
2018-09-30T06:49:22.621Z,10.83
2018-09-30T06:51:50.691Z,10.84
2018-09-30T06:54:18.753Z,10.86
2018-09-30T06:56:46.825Z,10.87
2018-09-30T06:59:14.999Z,10.91
2018-09-30T07:01:43.098Z,10.95
2018-09-30T07:04:11.152Z,10.99
2018-09-30T07:06:39.237Z,11.03
2018-09-30T07:09:07.991Z,11.02
2018-09-30T07:11:36.367Z,11.05
2018-09-30T07:14:04.502Z,11.11
2018-09-30T07:16:32.838Z,11.34
2018-09-30T07:19:00.921Z,11.76
2018-09-30T07:21:28.995Z,12.26
2018-09-30T07:23:57.056Z,12.75
2018-09-30T07:26:25.142Z,13.20
2018-09-30T07:28:53.212Z,13.61
2018-09-30T07:31:21.300Z,13.93
2018-09-30T07:33:49.402Z,14.27
2018-09-30T07:36:17.493Z,14.58
2018-09-30T07:38:45.557Z,14.90
2018-09-30T07:41:13.633Z,15.18
2018-09-30T07:43:41.737Z,15.39
2018-09-30T07:46:09.793Z,15.60
2018-09-30T07:48:37.889Z,15.78
2018-09-30T07:51:05.942Z,15.98
2018-09-30T07:53:34.018Z,16.15
2018-09-30T07:56:02.114Z,16.32
2018-09-30T07:58:30.186Z,16.43
2018-09-30T08:00:58.260Z,16.55
2018-09-30T08:03:26.358Z,16.57
2018-09-30T08:05:54.426Z,16.50
2018-09-30T08:08:22.497Z,16.42
2018-09-30T08:10:50.774Z,16.35
2018-09-30T08:13:18.888Z,16.26
2018-09-30T08:15:47.429Z,16.16
2018-09-30T08:18:15.597Z,16.11
2018-09-30T08:20:43.656Z,16.14
2018-09-30T08:23:11.734Z,16.17
2018-09-30T08:25:39.802Z,16.13
2018-09-30T08:28:07.889Z,16.08
2018-09-30T08:30:36.011Z,15.98
2018-09-30T08:33:04.057Z,15.90
2018-09-30T08:35:32.120Z,15.83
2018-09-30T08:38:05.553Z,15.73
2018-09-30T08:40:39.109Z,15.66
2018-09-30T08:43:07.178Z,15.60
2018-09-30T08:45:35.257Z,15.55
2018-09-30T08:48:03.347Z,15.42
2018-09-30T08:50:31.410Z,15.35
2018-09-30T08:52:59.468Z,15.29
2018-09-30T08:55:27.547Z,15.23
2018-09-30T08:57:55.625Z,15.21
2018-09-30T09:00:23.687Z,15.20
2018-09-30T09:02:51.753Z,15.28
2018-09-30T09:05:19.816Z,15.41
2018-09-30T09:07:47.901Z,15.53
2018-09-30T09:10:15.957Z,15.59
2018-09-30T09:12:44.120Z,15.70
2018-09-30T09:15:12.198Z,15.82
2018-09-30T09:17:40.266Z,15.90
2018-09-30T09:20:08.343Z,16.01
2018-09-30T09:22:36.448Z,16.08
2018-09-30T09:25:04.749Z,16.08
2018-09-30T09:27:32.813Z,16.07
2018-09-30T09:30:00.893Z,16.01
2018-09-30T09:32:28.989Z,15.95
2018-09-30T09:34:57.214Z,15.96
2018-09-30T09:37:25.224Z,15.96
2018-09-30T09:39:53.341Z,15.95
2018-09-30T09:42:21.396Z,15.98
2018-09-30T09:44:49.549Z,16.08
2018-09-30T09:47:17.613Z,16.28
2018-09-30T09:49:45.677Z,16.52
2018-09-30T09:52:13.729Z,16.67
2018-09-30T09:54:41.811Z,16.84
2018-09-30T09:57:09.893Z,17.04
2018-09-30T09:59:37.958Z,17.26
2018-09-30T10:02:06.008Z,17.47
2018-09-30T10:04:34.097Z,17.62
2018-09-30T10:07:02.150Z,17.79
2018-09-30T10:09:30.350Z,18.06
2018-09-30T10:11:58.446Z,18.33
2018-09-30T10:14:26.536Z,18.66
2018-09-30T10:16:54.646Z,18.95
2018-09-30T10:19:22.738Z,19.09
2018-09-30T10:21:50.893Z,19.30
2018-09-30T10:24:19.003Z,19.65
2018-09-30T10:26:47.130Z,19.97
2018-09-30T10:29:15.320Z,20.20
2018-09-30T10:31:43.428Z,20.33
2018-09-30T10:34:11.544Z,20.38
2018-09-30T10:36:39.657Z,20.46
2018-09-30T10:39:08.974Z,20.54
2018-09-30T10:41:36.992Z,20.45
2018-09-30T10:44:05.084Z,20.29
2018-09-30T10:46:33.217Z,20.20
2018-09-30T10:49:01.378Z,20.18
2018-09-30T10:51:29.482Z,20.38
2018-09-30T10:53:57.857Z,20.60
2018-09-30T10:56:25.953Z,20.90
2018-09-30T10:58:54.123Z,21.11
2018-09-30T11:01:22.222Z,21.16
2018-09-30T11:03:50.325Z,21.05
2018-09-30T11:06:18.421Z,21.07
2018-09-30T11:08:46.520Z,21.20
2018-09-30T11:11:14.611Z,21.38
2018-09-30T11:13:42.697Z,21.67
2018-09-30T11:16:10.824Z,21.82
2018-09-30T11:18:38.897Z,21.80
2018-09-30T11:21:07.642Z,21.99
2018-09-30T11:23:35.725Z,22.35
2018-09-30T11:26:03.821Z,22.61
2018-09-30T11:28:31.928Z,22.85
2018-09-30T11:31:00.022Z,23.16
2018-09-30T11:33:28.113Z,23.27
2018-09-30T11:35:56.222Z,23.39
2018-09-30T11:38:24.333Z,23.63
2018-09-30T11:40:52.429Z,23.94
2018-09-30T11:43:20.513Z,24.31
2018-09-30T11:45:48.653Z,24.64
2018-09-30T11:48:16.742Z,24.88
2018-09-30T11:50:44.837Z,24.91
2018-09-30T11:53:12.942Z,24.83
2018-09-30T11:55:41.050Z,24.79
2018-09-30T11:58:09.145Z,24.84
2018-09-30T12:00:37.325Z,25.03
2018-09-30T12:03:05.418Z,25.12
2018-09-30T12:05:33.494Z,25.18
2018-09-30T12:08:01.684Z,25.33
2018-09-30T12:10:29.788Z,25.51
2018-09-30T12:12:57.869Z,25.63
2018-09-30T12:15:25.974Z,25.58
2018-09-30T12:17:54.058Z,25.48
2018-09-30T12:20:22.145Z,25.46
2018-09-30T12:22:50.229Z,25.25
2018-09-30T12:25:18.313Z,25.02
2018-09-30T12:27:46.385Z,24.93
2018-09-30T12:30:14.500Z,24.91
2018-09-30T12:32:42.593Z,24.67
2018-09-30T12:35:10.705Z,24.56
2018-09-30T12:37:38.778Z,24.61
2018-09-30T12:40:06.864Z,24.73
2018-09-30T12:42:34.943Z,24.83
2018-09-30T12:45:03.030Z,24.91
2018-09-30T12:47:31.116Z,24.93
2018-09-30T12:49:59.234Z,24.63
2018-09-30T12:52:27.331Z,24.54
2018-09-30T12:54:55.426Z,24.57
2018-09-30T12:57:23.543Z,24.30
2018-09-30T12:59:51.660Z,24.01
2018-09-30T13:02:19.725Z,23.77
2018-09-30T13:04:47.816Z,23.40
2018-09-30T13:07:15.906Z,23.13
2018-09-30T13:09:43.980Z,22.83
2018-09-30T13:12:13.762Z,22.58
2018-09-30T13:14:42.642Z,22.30
2018-09-30T13:17:10.736Z,21.98
2018-09-30T13:19:38.870Z,21.74
2018-09-30T13:22:06.994Z,21.54
2018-09-30T13:24:35.084Z,21.52
2018-09-30T13:27:03.161Z,21.51
2018-09-30T13:29:31.315Z,21.54
2018-09-30T13:31:59.393Z,21.62
2018-09-30T13:34:27.493Z,21.61
2018-09-30T13:36:55.576Z,21.68
2018-09-30T13:39:23.634Z,21.86
2018-09-30T13:41:51.717Z,22.03
2018-09-30T13:44:19.781Z,22.24
2018-09-30T13:46:47.849Z,22.37
2018-09-30T13:49:15.905Z,22.23
2018-09-30T13:51:43.986Z,21.99
2018-09-30T13:54:12.053Z,21.79
2018-09-30T13:56:40.133Z,21.54
2018-09-30T13:59:08.197Z,21.39
2018-09-30T14:01:36.273Z,21.19
2018-09-30T14:04:04.353Z,21.06
2018-09-30T14:06:32.457Z,21.00
2018-09-30T14:09:00.593Z,20.90
2018-09-30T14:11:28.674Z,20.85
2018-09-30T14:13:56.738Z,20.77
2018-09-30T14:16:24.824Z,20.64
2018-09-30T14:18:52.897Z,20.59
2018-09-30T14:21:21.067Z,20.58
2018-09-30T14:23:49.145Z,20.50
2018-09-30T14:26:17.241Z,20.44
2018-09-30T14:28:45.317Z,20.44
2018-09-30T14:31:13.402Z,20.44
2018-09-30T14:33:41.478Z,20.36
2018-09-30T14:36:09.581Z,20.30
2018-09-30T14:38:37.642Z,20.26
2018-09-30T14:41:05.720Z,20.22
2018-09-30T14:43:33.793Z,20.12
2018-09-30T14:46:01.957Z,20.08
2018-09-30T14:48:30.055Z,20.04
2018-09-30T14:50:58.105Z,19.97
2018-09-30T14:53:26.172Z,19.88
2018-09-30T14:55:54.241Z,19.81
2018-09-30T14:58:22.318Z,19.76
2018-09-30T15:00:50.381Z,19.51
2018-09-30T15:03:18.507Z,19.43
2018-09-30T15:05:46.833Z,19.40
2018-09-30T15:08:14.994Z,19.41
2018-09-30T15:10:43.052Z,19.39
2018-09-30T15:13:11.137Z,19.33
2018-09-30T15:15:39.271Z,19.23
2018-09-30T15:18:07.347Z,19.16
2018-09-30T15:20:35.409Z,19.15
2018-09-30T15:23:03.486Z,19.18
2018-09-30T15:25:31.557Z,19.20
2018-09-30T15:27:59.626Z,19.18
2018-09-30T15:30:27.697Z,19.12
2018-09-30T15:32:55.794Z,19.02
2018-09-30T15:35:23.865Z,19.00
2018-09-30T15:37:51.942Z,18.96
2018-09-30T15:40:19.993Z,18.89
2018-09-30T15:42:48.074Z,18.83
2018-09-30T15:45:16.133Z,18.84
2018-09-30T15:47:44.201Z,18.84
2018-09-30T15:50:12.269Z,18.83
2018-09-30T15:52:40.341Z,18.85
2018-09-30T15:55:08.393Z,18.86
2018-09-30T15:57:36.474Z,18.77
2018-09-30T16:00:04.537Z,18.73
2018-09-30T16:02:32.611Z,18.74
2018-09-30T16:05:00.686Z,18.74
2018-09-30T16:07:28.749Z,18.73
2018-09-30T16:09:56.805Z,18.70
2018-09-30T16:12:24.927Z,18.68
2018-09-30T16:14:52.990Z,18.66
2018-09-30T16:17:21.064Z,18.63
2018-09-30T16:19:49.145Z,18.58
2018-09-30T16:22:17.217Z,18.53
2018-09-30T16:24:45.378Z,18.50
2018-09-30T16:27:13.437Z,18.47
2018-09-30T16:29:41.513Z,18.44
2018-09-30T16:32:09.682Z,18.41
2018-09-30T16:34:37.749Z,18.38
2018-09-30T16:37:05.833Z,18.33
2018-09-30T16:39:33.905Z,18.30
2018-09-30T16:42:01.981Z,18.27
2018-09-30T16:44:30.061Z,18.23
2018-09-30T16:46:58.213Z,18.17
2018-09-30T16:49:26.281Z,18.11
2018-09-30T16:51:54.337Z,18.04
2018-09-30T16:54:22.425Z,17.97
2018-09-30T16:56:50.620Z,17.91
2018-09-30T16:59:18.677Z,17.83
2018-09-30T17:01:46.730Z,17.77
2018-09-30T17:04:14.797Z,17.69
2018-09-30T17:06:42.931Z,17.60
2018-09-30T17:09:10.948Z,17.53
2018-09-30T17:11:39.009Z,17.49
2018-09-30T17:14:07.929Z,17.44
2018-09-30T17:16:35.982Z,17.39
2018-09-30T17:19:04.108Z,17.30
2018-09-30T17:21:32.173Z,17.22
2018-09-30T17:24:00.281Z,17.15
2018-09-30T17:26:28.338Z,17.07
2018-09-30T17:28:56.421Z,17.00
2018-09-30T17:31:24.574Z,16.92
2018-09-30T17:33:52.684Z,16.85
2018-09-30T17:36:20.749Z,16.77
2018-09-30T17:38:48.825Z,16.71
2018-09-30T17:41:16.894Z,16.64
2018-09-30T17:43:45.034Z,16.58
2018-09-30T17:46:13.046Z,16.50
2018-09-30T17:48:41.117Z,16.44
2018-09-30T17:51:09.202Z,16.39
2018-09-30T17:53:37.274Z,16.32
2018-09-30T17:56:05.713Z,16.25
2018-09-30T17:58:33.791Z,16.18
2018-09-30T18:01:01.888Z,16.12
2018-09-30T18:03:29.977Z,16.06
2018-09-30T18:05:58.053Z,16.03
2018-09-30T18:08:26.122Z,15.99
2018-09-30T18:10:54.268Z,15.96
2018-09-30T18:13:22.325Z,15.91
2018-09-30T18:15:50.398Z,15.86
2018-09-30T18:18:18.546Z,15.82
2018-09-30T18:20:46.661Z,15.76
2018-09-30T18:23:14.751Z,15.73
2018-09-30T18:25:42.820Z,15.69
2018-09-30T18:28:11.214Z,15.64
2018-09-30T18:30:39.318Z,15.59
2018-09-30T18:33:07.517Z,15.54
2018-09-30T18:35:35.597Z,15.49
2018-09-30T18:38:03.681Z,15.45
2018-09-30T18:40:39.865Z,15.44
2018-09-30T18:43:07.973Z,15.40
2018-09-30T18:45:36.069Z,15.38
2018-09-30T18:48:04.156Z,15.33
2018-09-30T18:50:32.233Z,15.29
2018-09-30T18:53:00.329Z,15.25
2018-09-30T18:55:28.396Z,15.22
2018-09-30T18:57:56.521Z,15.17
2018-09-30T19:00:24.607Z,15.12
2018-09-30T19:02:52.693Z,15.08
2018-09-30T19:05:20.798Z,15.05
2018-09-30T19:07:48.897Z,14.99
2018-09-30T19:10:16.981Z,14.96
2018-09-30T19:12:45.086Z,14.93
2018-09-30T19:15:13.235Z,14.89
2018-09-30T19:17:41.277Z,14.87
2018-09-30T19:20:09.353Z,14.83
2018-09-30T19:22:37.465Z,14.78
2018-09-30T19:25:05.557Z,14.75
2018-09-30T19:27:33.593Z,14.72
2018-09-30T19:30:01.725Z,14.68
2018-09-30T19:32:29.780Z,14.65
2018-09-30T19:34:57.893Z,14.61
2018-09-30T19:37:25.966Z,14.57
2018-09-30T19:39:54.049Z,14.53
2018-09-30T19:42:22.118Z,14.51
2018-09-30T19:44:50.186Z,14.47
2018-09-30T19:47:18.263Z,14.44
2018-09-30T19:49:46.344Z,14.42
2018-09-30T19:52:14.420Z,14.40
2018-09-30T19:54:42.538Z,14.39
2018-09-30T19:57:10.600Z,14.35
2018-09-30T19:59:38.676Z,14.34
2018-09-30T20:02:07.185Z,14.29
2018-09-30T20:04:35.265Z,14.28
2018-09-30T20:07:03.353Z,14.25
2018-09-30T20:09:31.452Z,14.22
2018-09-30T20:11:59.533Z,14.19
2018-09-30T20:14:27.619Z,14.18
2018-09-30T20:16:55.692Z,14.16
2018-09-30T20:19:23.766Z,14.15
2018-09-30T20:21:51.840Z,14.13
2018-09-30T20:24:19.937Z,14.13
2018-09-30T20:26:48.047Z,14.10
2018-09-30T20:29:16.104Z,14.10
2018-09-30T20:31:44.177Z,14.09
2018-09-30T20:34:12.295Z,14.07
2018-09-30T20:36:40.394Z,14.05
2018-09-30T20:39:08.473Z,14.03
2018-09-30T20:41:36.545Z,14.04
2018-09-30T20:44:04.621Z,14.02
2018-09-30T20:46:32.760Z,14.00
2018-09-30T20:49:00.847Z,13.99
2018-09-30T20:51:28.920Z,13.98
2018-09-30T20:53:56.977Z,13.97
2018-09-30T20:56:25.057Z,13.95
2018-09-30T20:58:53.117Z,13.94
2018-09-30T21:01:21.201Z,13.90
2018-09-30T21:03:49.277Z,13.88
2018-09-30T21:06:23.785Z,13.83
2018-09-30T21:08:51.850Z,13.80
2018-09-30T21:11:19.926Z,13.78
2018-09-30T21:13:47.990Z,13.74
2018-09-30T21:16:16.058Z,13.71
2018-09-30T21:18:44.354Z,13.67
2018-09-30T21:21:12.401Z,13.63
2018-09-30T21:23:40.509Z,13.60
2018-09-30T21:26:08.589Z,13.56
2018-09-30T21:28:36.753Z,13.52
2018-09-30T21:31:04.885Z,13.49
2018-09-30T21:33:32.976Z,13.47
2018-09-30T21:36:01.082Z,13.44
2018-09-30T21:38:29.141Z,13.41
2018-09-30T21:40:57.277Z,13.39
2018-09-30T21:43:25.332Z,13.37
2018-09-30T21:45:53.402Z,13.36
2018-09-30T21:48:21.791Z,13.35
2018-09-30T21:50:49.864Z,13.32
2018-09-30T21:53:18.333Z,13.31
2018-09-30T21:55:46.429Z,13.31
2018-09-30T21:58:14.505Z,13.29
2018-09-30T22:00:48.628Z,13.28
2018-09-30T22:03:16.777Z,13.28
2018-09-30T22:05:44.841Z,13.27
2018-09-30T22:08:12.931Z,13.28
2018-09-30T22:10:42.089Z,13.27
2018-09-30T22:13:10.985Z,13.27
2018-09-30T22:15:39.066Z,13.27
2018-09-30T22:18:07.145Z,13.26
2018-09-30T22:20:35.271Z,13.27
2018-09-30T22:23:03.350Z,13.27
2018-09-30T22:25:31.424Z,13.27
2018-09-30T22:27:59.713Z,13.27
2018-09-30T22:30:27.796Z,13.28
2018-09-30T22:32:55.877Z,13.31
2018-09-30T22:35:23.961Z,13.32
2018-09-30T22:37:52.046Z,13.34
2018-09-30T22:40:20.211Z,13.36
2018-09-30T22:42:48.230Z,13.37
2018-09-30T22:45:16.285Z,13.41
2018-09-30T22:47:44.358Z,13.45
2018-09-30T22:50:12.424Z,13.47
2018-09-30T22:52:40.492Z,13.49
2018-09-30T22:55:08.553Z,13.53
2018-09-30T22:57:36.626Z,13.54
2018-09-30T23:00:05.322Z,13.58
2018-09-30T23:02:33.390Z,13.61
2018-09-30T23:05:01.446Z,13.62
2018-09-30T23:07:29.517Z,13.63
2018-09-30T23:09:57.577Z,13.67
2018-09-30T23:12:25.653Z,13.68
2018-09-30T23:14:53.717Z,13.67
2018-09-30T23:17:21.786Z,13.67
2018-09-30T23:19:49.841Z,13.68
2018-09-30T23:22:17.911Z,13.68
2018-09-30T23:24:45.972Z,13.69
2018-09-30T23:27:14.057Z,13.68
2018-09-30T23:29:42.113Z,13.71
2018-09-30T23:32:10.185Z,13.73
2018-09-30T23:34:38.305Z,13.75
2018-09-30T23:37:06.494Z,13.77
2018-09-30T23:39:34.558Z,13.79
2018-09-30T23:42:02.633Z,13.80
2018-09-30T23:44:30.699Z,13.83
2018-09-30T23:46:58.761Z,13.86
2018-09-30T23:49:26.841Z,13.90
2018-09-30T23:51:54.904Z,13.91
2018-09-30T23:54:22.981Z,13.93
2018-09-30T23:56:51.080Z,13.95
2018-09-30T23:59:19.222Z,13.98
